createdAt,value
2017-11-18T00:02:03.892Z,78.63
2017-11-18T00:04:34.006Z,88.03
2017-11-18T00:07:04.023Z,80.40
2017-11-18T00:09:33.940Z,83.00
2017-11-18T00:12:03.956Z,89.40
2017-11-18T00:14:33.977Z,85.67
2017-11-18T00:17:03.960Z,83.63
2017-11-18T00:19:34.113Z,80.60
2017-11-18T00:22:04.132Z,83.60
2017-11-18T00:24:34.042Z,86.00
2017-11-18T00:27:04.252Z,78.47
2017-11-18T00:29:34.494Z,82.63
2017-11-18T00:32:04.199Z,85.60
2017-11-18T00:34:34.216Z,88.17
2017-11-18T00:37:04.235Z,77.53
2017-11-18T00:39:34.272Z,79.60
2017-11-18T00:42:04.261Z,76.20
2017-11-18T00:44:34.378Z,79.27
2017-11-18T00:47:04.436Z,84.33
2017-11-18T00:49:34.582Z,83.87
2017-11-18T00:52:04.545Z,79.47
2017-11-18T00:54:34.554Z,71.30
2017-11-18T00:57:04.585Z,75.83
2017-11-18T00:59:34.590Z,71.27
2017-11-18T01:02:04.601Z,74.60
2017-11-18T01:04:34.734Z,68.43
2017-11-18T01:07:04.751Z,66.30
2017-11-18T01:09:34.820Z,67.37
2017-11-18T01:12:04.827Z,71.20
2017-11-18T01:14:34.803Z,72.47
2017-11-18T01:17:04.814Z,81.63
2017-11-18T01:19:35.234Z,79.33
2017-11-18T01:22:05.033Z,73.53
2017-11-18T01:24:34.988Z,73.37
2017-11-18T01:27:05.063Z,75.67
2017-11-18T01:29:35.019Z,61.63
2017-11-18T01:32:05.063Z,75.47
2017-11-18T01:34:35.083Z,62.80
2017-11-18T01:37:05.280Z,68.50
2017-11-18T01:39:35.238Z,60.37
2017-11-18T01:42:05.294Z,66.73
2017-11-18T01:44:35.256Z,65.10
2017-11-18T01:47:05.251Z,66.00
2017-11-18T01:49:35.401Z,61.47
2017-11-18T01:52:06.383Z,66.47
2017-11-18T01:54:41.699Z,62.67
2017-11-18T01:57:11.294Z,79.23
2017-11-18T01:59:40.842Z,74.33
2017-11-18T02:02:10.648Z,75.93
2017-11-18T02:04:40.726Z,72.23
2017-11-18T02:07:10.680Z,70.17
2017-11-18T02:09:41.128Z,75.97
2017-11-18T02:12:10.711Z,85.57
2017-11-18T02:14:40.830Z,89.43
2017-11-18T02:17:10.823Z,84.17
2017-11-18T02:19:41.102Z,88.50
2017-11-18T02:22:10.831Z,89.20
2017-11-18T02:24:40.904Z,85.87
2017-11-18T02:27:11.603Z,87.33
2017-11-18T02:29:41.185Z,95.63
2017-11-18T02:32:10.919Z,90.30
2017-11-18T02:34:41.880Z,98.00
2017-11-18T02:37:11.418Z,105.83
2017-11-18T02:39:40.983Z,98.97
2017-11-18T02:42:11.072Z,103.37
2017-11-18T02:44:41.116Z,99.67
2017-11-18T02:47:11.207Z,109.13
2017-11-18T02:49:41.110Z,87.43
2017-11-18T02:52:11.195Z,78.77
2017-11-18T02:54:41.360Z,83.97
2017-11-18T02:57:11.318Z,87.60
2017-11-18T02:59:41.427Z,89.63
2017-11-18T03:02:11.398Z,81.83
2017-11-18T03:04:41.403Z,86.33
2017-11-18T03:07:11.419Z,89.10
2017-11-18T03:09:41.446Z,83.27
2017-11-18T03:12:11.868Z,79.57
2017-11-18T03:14:41.562Z,85.43
2017-11-18T03:17:11.517Z,85.60
2017-11-18T03:19:41.586Z,72.97
2017-11-18T03:22:11.540Z,78.43
2017-11-18T03:24:41.596Z,84.50
2017-11-18T03:27:11.764Z,70.63
2017-11-18T03:29:41.729Z,77.23
2017-11-18T03:32:11.767Z,70.83
2017-11-18T03:34:41.759Z,74.10
2017-11-18T03:37:11.745Z,72.57
2017-11-18T03:39:41.746Z,65.33
2017-11-18T03:42:11.808Z,65.50
2017-11-18T03:44:41.951Z,69.67
2017-11-18T03:47:11.851Z,67.50
2017-11-18T03:49:42.071Z,58.70
2017-11-18T03:52:12.054Z,67.03
2017-11-18T03:54:42.108Z,71.50
2017-11-18T03:57:12.013Z,63.30
2017-11-18T03:59:42.044Z,64.17
2017-11-18T04:02:12.151Z,68.20
2017-11-18T04:04:42.583Z,62.13
2017-11-18T04:07:12.186Z,63.17
2017-11-18T04:09:42.100Z,63.57
2017-11-18T04:12:12.065Z,55.30
2017-11-18T04:14:42.375Z,52.70
2017-11-18T04:17:12.147Z,57.93
2017-11-18T04:19:42.286Z,53.23
2017-11-18T04:22:12.261Z,54.33
2017-11-18T04:24:42.442Z,53.93
2017-11-18T04:27:12.191Z,52.67
2017-11-18T04:29:42.323Z,54.40
2017-11-18T04:32:12.554Z,53.03
2017-11-18T04:34:42.405Z,48.33
2017-11-18T04:37:12.424Z,50.17
2017-11-18T04:39:42.403Z,53.10
2017-11-18T04:42:12.552Z,49.20
2017-11-18T04:44:42.747Z,55.07
2017-11-18T04:47:12.561Z,52.50
2017-11-18T04:49:42.609Z,56.83
2017-11-18T04:52:12.540Z,56.23
2017-11-18T04:54:42.682Z,58.03
2017-11-18T04:57:13.479Z,57.67
2017-11-18T04:59:43.064Z,52.93
2017-11-18T05:02:13.709Z,54.63
2017-11-18T05:04:43.296Z,52.40
2017-11-18T05:07:13.036Z,50.80
2017-11-18T05:09:43.425Z,54.93
2017-11-18T05:12:13.021Z,52.30
2017-11-18T05:14:43.011Z,50.13
2017-11-18T05:17:13.061Z,53.83
2017-11-18T05:19:43.044Z,54.97
2017-11-18T05:22:13.073Z,52.97
2017-11-18T05:24:43.323Z,52.17
2017-11-18T05:27:13.373Z,46.53
2017-11-18T05:29:43.278Z,52.67
2017-11-18T05:32:13.421Z,45.87
2017-11-18T05:34:43.538Z,45.83
2017-11-18T05:37:13.635Z,48.07
2017-11-18T05:39:43.775Z,43.27
2017-11-18T05:42:13.734Z,53.03
2017-11-18T05:44:43.727Z,48.73
2017-11-18T05:47:14.585Z,50.97
2017-11-18T05:49:44.163Z,46.60
2017-11-18T05:52:13.941Z,50.40
2017-11-18T05:54:43.989Z,49.63
2017-11-18T05:57:13.937Z,52.00
2017-11-18T05:59:43.994Z,58.63
2017-11-18T06:02:14.062Z,55.80
2017-11-18T06:04:44.123Z,52.37
2017-11-18T06:07:14.961Z,59.37
2017-11-18T06:09:44.585Z,54.13
2017-11-18T06:12:14.266Z,76.17
2017-11-18T06:14:44.324Z,57.87
2017-11-18T06:17:14.339Z,56.50
2017-11-18T06:19:44.371Z,61.43
2017-11-18T06:22:14.380Z,57.90
2017-11-18T06:24:44.436Z,65.30
2017-11-18T06:27:14.686Z,68.93
2017-11-18T06:29:44.638Z,66.80
2017-11-18T06:32:14.526Z,66.77
2017-11-18T06:34:44.591Z,71.40
2017-11-18T06:37:14.681Z,74.67
2017-11-18T06:39:44.784Z,73.93
2017-11-18T06:42:14.819Z,68.20
2017-11-18T06:44:44.851Z,69.20
2017-11-18T06:47:14.816Z,71.10
2017-11-18T06:49:44.998Z,66.13
2017-11-18T06:52:14.962Z,72.83
2017-11-18T06:54:45.085Z,68.63
2017-11-18T06:57:15.101Z,63.93
2017-11-18T06:59:45.120Z,59.63
2017-11-18T07:02:15.153Z,57.37
2017-11-18T07:04:45.214Z,58.83
2017-11-18T07:07:15.259Z,55.73
2017-11-18T07:09:45.313Z,50.47
2017-11-18T07:12:15.431Z,45.00
2017-11-18T07:14:45.446Z,45.47
2017-11-18T07:17:15.523Z,48.87
2017-11-18T07:19:45.660Z,41.87
2017-11-18T07:22:15.913Z,42.43
2017-11-18T07:24:46.120Z,43.87
2017-11-18T07:27:16.132Z,42.80
2017-11-18T07:29:46.149Z,45.70
2017-11-18T07:32:16.239Z,35.87
2017-11-18T07:34:46.295Z,40.97
2017-11-18T07:37:16.410Z,51.00
2017-11-18T07:39:46.455Z,50.90
2017-11-18T07:42:16.484Z,51.50
2017-11-18T07:44:46.974Z,52.27
2017-11-18T07:47:16.560Z,50.53
2017-11-18T07:49:46.604Z,51.20
2017-11-18T07:52:16.685Z,51.10
2017-11-18T07:54:46.717Z,50.03
2017-11-18T07:57:16.751Z,42.20
2017-11-18T07:59:46.780Z,38.93
2017-11-18T08:02:16.790Z,37.90
2017-11-18T08:04:46.903Z,39.07
2017-11-18T08:07:16.929Z,37.63
2017-11-18T08:09:47.661Z,37.93
2017-11-18T08:12:17.239Z,35.40
2017-11-18T08:14:46.975Z,36.37
2017-11-18T08:17:17.103Z,42.67
2017-11-18T08:19:47.159Z,33.30
2017-11-18T08:22:17.128Z,36.67
2017-11-18T08:24:47.256Z,35.03
2017-11-18T08:27:17.274Z,32.87
2017-11-18T08:29:48.436Z,38.97
2017-11-18T08:32:18.868Z,38.57
2017-11-18T08:34:48.798Z,36.60
2017-11-18T08:37:18.349Z,42.17
2017-11-18T08:39:47.893Z,41.77
2017-11-18T08:42:17.461Z,45.07
2017-11-18T08:44:48.054Z,47.90
2017-11-18T08:47:17.617Z,53.43
2017-11-18T08:49:47.615Z,54.97
2017-11-18T08:52:17.793Z,56.10
2017-11-18T08:54:47.776Z,54.73
2017-11-18T08:57:17.795Z,56.60
2017-11-18T08:59:47.811Z,59.67
2017-11-18T09:02:18.108Z,52.73
2017-11-18T09:04:48.328Z,52.50
2017-11-18T09:07:19.293Z,54.13
2017-11-18T09:09:50.050Z,56.17
2017-11-18T09:12:20.626Z,49.83
2017-11-18T09:14:50.652Z,50.57
2017-11-18T09:17:20.443Z,47.93
2017-11-18T09:19:50.546Z,49.70
2017-11-18T09:22:20.956Z,50.43
2017-11-18T09:24:50.771Z,53.63
2017-11-18T09:27:20.639Z,49.43
2017-11-18T09:29:50.798Z,49.97
2017-11-18T09:32:20.818Z,53.00
2017-11-18T09:34:50.926Z,45.53
2017-11-18T09:37:20.945Z,43.63
2017-11-18T09:39:50.881Z,42.47
2017-11-18T09:42:21.149Z,40.13
2017-11-18T09:44:51.521Z,40.83
2017-11-18T09:47:21.340Z,38.30
2017-11-18T09:49:51.327Z,43.90
2017-11-18T09:52:21.376Z,43.53
2017-11-18T09:54:51.902Z,45.07
2017-11-18T09:57:22.501Z,42.83
2017-11-18T09:59:52.079Z,40.17
2017-11-18T10:02:21.645Z,39.87
2017-11-18T10:04:51.920Z,33.13
2017-11-18T10:07:21.629Z,42.30
2017-11-18T10:09:51.918Z,41.50
2017-11-18T10:12:21.665Z,36.17
2017-11-18T10:14:52.396Z,36.60
2017-11-18T10:17:22.213Z,42.90
2017-11-18T10:19:52.770Z,34.70
2017-11-18T10:22:23.023Z,38.63
2017-11-18T10:24:54.457Z,40.77
2017-11-18T10:27:24.763Z,38.87
2017-11-18T10:29:54.698Z,36.40
2017-11-18T10:32:24.660Z,41.53
2017-11-18T10:34:54.744Z,34.40
2017-11-18T10:37:24.841Z,36.63
2017-11-18T10:39:54.963Z,34.53
2017-11-18T10:42:25.006Z,30.63
2017-11-18T10:44:58.731Z,32.87
2017-11-18T10:47:29.110Z,36.37
2017-11-18T10:49:59.112Z,31.20
2017-11-18T10:52:29.116Z,30.47
2017-11-18T10:54:59.128Z,25.23
2017-11-18T10:57:29.259Z,25.43
2017-11-18T11:00:00.735Z,35.87
2017-11-18T11:02:31.439Z,27.13
2017-11-18T11:05:01.171Z,30.60
2017-11-18T11:07:30.750Z,20.47
2017-11-18T11:10:00.328Z,22.70
2017-11-18T11:12:32.031Z,26.27
2017-11-18T11:15:02.304Z,20.20
2017-11-18T11:17:31.880Z,25.37
2017-11-18T11:20:01.423Z,23.03
2017-11-18T11:22:31.000Z,24.93
2017-11-18T11:25:00.967Z,22.10
2017-11-18T11:27:30.952Z,25.83
2017-11-18T11:30:01.057Z,19.73
2017-11-18T11:32:31.782Z,18.43
2017-11-18T11:35:02.644Z,18.30
2017-11-18T11:37:32.222Z,17.80
2017-11-18T11:40:01.780Z,15.73
2017-11-18T11:42:31.772Z,15.00
2017-11-18T11:45:02.190Z,16.27
2017-11-18T11:47:33.383Z,15.07
2017-11-18T11:50:03.723Z,16.87
2017-11-18T11:52:33.560Z,18.10
2017-11-18T11:55:04.898Z,15.87
2017-11-18T11:57:36.932Z,16.57
2017-11-18T12:00:07.423Z,26.20
2017-11-18T12:02:37.409Z,19.40
2017-11-18T12:05:11.838Z,18.20
2017-11-18T12:07:43.414Z,17.37
2017-11-18T12:10:13.007Z,16.13
2017-11-18T12:12:43.762Z,13.33
2017-11-18T12:15:13.391Z,13.03
2017-11-18T12:17:43.031Z,15.90
2017-11-18T12:20:13.081Z,15.20
2017-11-18T12:22:43.356Z,18.73
2017-11-18T12:25:12.925Z,27.40
2017-11-18T12:27:42.803Z,30.80
2017-11-18T12:30:12.837Z,22.43
2017-11-18T12:32:43.120Z,18.90
2017-11-18T12:35:13.113Z,22.17
2017-11-18T12:37:43.795Z,23.17
2017-11-18T12:40:13.440Z,26.50
2017-11-18T12:42:44.075Z,17.07
2017-11-18T12:45:15.808Z,27.13
2017-11-18T12:47:46.011Z,14.57
2017-11-18T12:50:16.067Z,16.20
2017-11-18T12:52:46.096Z,17.03
2017-11-18T12:55:15.743Z,23.67
2017-11-18T12:57:46.154Z,19.03
2017-11-18T13:00:15.850Z,26.03
2017-11-18T13:02:45.769Z,19.90
2017-11-18T13:05:15.941Z,17.10
2017-11-18T13:07:45.968Z,22.37
2017-11-18T13:10:15.890Z,18.77
2017-11-18T13:12:46.447Z,19.80
2017-11-18T13:15:16.095Z,30.20
2017-11-18T13:17:46.303Z,29.00
2017-11-18T13:20:16.494Z,31.10
2017-11-18T13:22:46.242Z,16.47
2017-11-18T13:25:16.344Z,22.77
2017-11-18T13:27:46.387Z,17.53
2017-11-18T13:30:16.397Z,15.50
2017-11-18T13:32:46.409Z,21.07
2017-11-18T13:35:16.579Z,13.20
2017-11-18T13:37:46.436Z,15.23
2017-11-18T13:40:16.536Z,21.40
2017-11-18T13:42:46.859Z,16.63
2017-11-18T13:45:16.769Z,28.27
2017-11-18T13:47:47.426Z,26.97
2017-11-18T13:50:17.071Z,20.43
2017-11-18T13:52:46.989Z,20.90
2017-11-18T13:55:17.119Z,17.20
2017-11-18T13:57:47.152Z,22.27
2017-11-18T14:00:17.174Z,12.43
2017-11-18T14:02:47.216Z,10.70
2017-11-18T14:05:17.343Z,14.57
2017-11-18T14:07:47.388Z,13.50
2017-11-18T14:10:17.485Z,13.93
2017-11-18T14:12:47.658Z,12.73
2017-11-18T14:15:17.811Z,8.73
2017-11-18T14:17:47.621Z,12.83
2017-11-18T14:20:17.706Z,15.20
2017-11-18T14:22:48.049Z,12.60
2017-11-18T14:25:17.708Z,14.03
2017-11-18T14:27:47.818Z,10.27
2017-11-18T14:30:17.936Z,14.13
2017-11-18T14:32:47.919Z,10.63
2017-11-18T14:35:18.056Z,12.53
2017-11-18T14:37:48.196Z,18.07
2017-11-18T14:40:18.105Z,14.03
2017-11-18T14:42:48.186Z,13.27
2017-11-18T14:45:18.211Z,17.77
2017-11-18T14:47:48.235Z,16.33
2017-11-18T14:50:18.286Z,13.53
2017-11-18T14:52:48.331Z,13.83
2017-11-18T14:55:19.471Z,16.03
2017-11-18T14:57:49.128Z,15.20
2017-11-18T15:00:18.720Z,17.10
2017-11-18T15:02:51.676Z,18.63
2017-11-18T15:05:21.853Z,19.10
2017-11-18T15:07:51.844Z,21.47
2017-11-18T15:10:22.778Z,19.97
2017-11-18T15:12:52.449Z,18.17
2017-11-18T15:15:42.067Z,17.43
2017-11-18T15:18:16.288Z,18.00
2017-11-18T15:20:53.067Z,7.80
2017-11-18T15:23:28.428Z,18.53
2017-11-18T15:26:19.074Z,25.03
2017-11-18T15:29:03.584Z,25.10
2017-11-18T15:31:50.779Z,24.83
2017-11-18T15:34:24.429Z,25.27
2017-11-18T15:37:01.775Z,31.73
2017-11-18T15:39:32.783Z,35.63
2017-11-18T15:42:02.947Z,28.30
2017-11-18T15:44:33.301Z,30.13
2017-11-18T15:47:08.765Z,28.37
2017-11-18T15:49:44.033Z,28.63
2017-11-18T15:52:14.329Z,26.13
2017-11-18T15:54:58.912Z,32.23
2017-11-18T15:57:29.346Z,35.40
2017-11-18T15:59:59.142Z,35.03
2017-11-18T16:02:32.527Z,30.10
2017-11-18T16:05:03.624Z,29.80
2017-11-18T16:07:35.748Z,38.80
2017-11-18T16:10:05.568Z,26.27
2017-11-18T16:12:35.659Z,53.33
2017-11-18T16:15:05.665Z,45.03
2017-11-18T16:17:35.556Z,36.13
2017-11-18T16:20:05.619Z,36.50
2017-11-18T16:22:35.756Z,30.87
2017-11-18T16:25:05.746Z,31.30
2017-11-18T16:27:35.756Z,24.23
2017-11-18T16:30:06.288Z,32.10
2017-11-18T16:32:35.853Z,37.13
2017-11-18T16:35:06.021Z,28.03
2017-11-18T16:37:35.995Z,31.03
2017-11-18T16:40:06.268Z,45.03
2017-11-18T16:42:36.160Z,14.13
2017-11-18T16:45:06.193Z,12.60
2017-11-18T16:47:36.213Z,30.83
2017-11-18T16:50:06.166Z,28.53
2017-11-18T16:52:36.487Z,22.07
2017-11-18T16:55:06.536Z,21.33
2017-11-18T16:57:37.131Z,29.13
2017-11-18T17:00:07.490Z,28.80
2017-11-18T17:02:37.122Z,25.90
2017-11-18T17:05:06.718Z,29.77
2017-11-18T17:07:36.593Z,20.50
2017-11-18T17:10:07.146Z,13.30
2017-11-18T17:12:36.727Z,17.87
2017-11-18T17:15:06.728Z,18.50
2017-11-18T17:17:36.803Z,17.70
2017-11-18T17:20:06.843Z,16.97
2017-11-18T17:22:37.859Z,25.03
2017-11-18T17:25:07.950Z,13.57
2017-11-18T17:27:37.575Z,11.93
2017-11-18T17:30:07.182Z,11.87
2017-11-18T17:32:36.762Z,16.77
2017-11-18T17:35:06.396Z,10.33
2017-11-18T17:37:35.976Z,11.67
2017-11-18T17:40:05.616Z,7.63
2017-11-18T17:42:35.695Z,11.67
2017-11-18T17:45:05.728Z,10.13
2017-11-18T17:47:35.847Z,7.20
2017-11-18T17:50:05.832Z,12.27
2017-11-18T17:52:35.956Z,13.23
2017-11-18T17:55:06.030Z,13.27
2017-11-18T17:57:35.839Z,14.17
2017-11-18T18:00:06.055Z,15.00
2017-11-18T18:02:36.029Z,10.17
2017-11-18T18:05:06.152Z,11.63
2017-11-18T18:07:36.346Z,10.57
2017-11-18T18:10:06.284Z,11.27
2017-11-18T18:12:36.295Z,7.40
2017-11-18T18:15:06.260Z,8.60
2017-11-18T18:17:36.517Z,8.37
2017-11-18T18:20:06.494Z,9.23
2017-11-18T18:22:36.393Z,9.23
2017-11-18T18:25:06.478Z,12.37
2017-11-18T18:27:36.678Z,13.00
2017-11-18T18:30:06.661Z,11.43
2017-11-18T18:32:36.858Z,9.47
2017-11-18T18:35:06.910Z,10.47
2017-11-18T18:37:36.869Z,10.37
2017-11-18T18:40:06.989Z,11.00
2017-11-18T18:42:36.921Z,11.57
2017-11-18T18:45:06.942Z,11.03
2017-11-18T18:47:37.142Z,11.50
2017-11-18T18:50:06.946Z,11.40
2017-11-18T18:52:37.362Z,17.30
2017-11-18T18:55:07.108Z,12.87
2017-11-18T18:57:37.223Z,9.20
2017-11-18T19:00:07.231Z,10.07
2017-11-18T19:02:37.410Z,9.63
2017-11-18T19:05:07.391Z,8.27
2017-11-18T19:07:37.442Z,8.07
2017-11-18T19:10:07.490Z,10.47
2017-11-18T19:12:37.518Z,8.90
2017-11-18T19:15:07.564Z,8.97
2017-11-18T19:17:37.726Z,14.27
2017-11-18T19:20:07.764Z,14.93
2017-11-18T19:22:37.917Z,11.53
2017-11-18T19:25:07.881Z,10.63
2017-11-18T19:27:37.752Z,14.17
2017-11-18T19:30:07.765Z,13.97
2017-11-18T19:32:37.783Z,15.03
2017-11-18T19:35:07.972Z,12.67
2017-11-18T19:37:38.087Z,15.13
2017-11-18T19:40:08.137Z,10.60
2017-11-18T19:42:38.143Z,14.70
2017-11-18T19:45:08.107Z,17.07
2017-11-18T19:47:38.352Z,14.73
2017-11-18T19:50:08.348Z,12.33
2017-11-18T19:52:38.350Z,17.17
2017-11-18T19:55:08.451Z,19.23
2017-11-18T19:57:38.296Z,14.50
2017-11-18T20:00:08.405Z,14.10
2017-11-18T20:02:38.546Z,11.97
2017-11-18T20:05:08.652Z,13.27
2017-11-18T20:07:38.805Z,12.13
2017-11-18T20:10:09.739Z,15.20
2017-11-18T20:12:39.291Z,16.87
2017-11-18T20:15:08.989Z,14.60
2017-11-18T20:17:38.890Z,15.23
2017-11-18T20:20:09.035Z,17.00
2017-11-18T20:22:39.208Z,16.40
2017-11-18T20:25:09.021Z,14.30
2017-11-18T20:27:39.024Z,11.20
2017-11-18T20:30:09.260Z,11.37
2017-11-18T20:32:39.211Z,15.90
2017-11-18T20:35:09.189Z,15.17
2017-11-18T20:37:40.104Z,13.60
2017-11-18T20:40:09.966Z,12.57
2017-11-18T20:42:39.557Z,13.20
2017-11-18T20:45:09.454Z,9.47
2017-11-18T20:47:39.512Z,10.83
2017-11-18T20:50:09.554Z,11.53
2017-11-18T20:52:39.670Z,12.83
2017-11-18T20:55:09.668Z,16.43
2017-11-18T20:57:39.880Z,17.33
2017-11-18T21:00:09.967Z,16.33
2017-11-18T21:02:39.950Z,16.93
2017-11-18T21:05:09.998Z,13.70
2017-11-18T21:07:39.985Z,10.97
2017-11-18T21:10:10.239Z,12.57
2017-11-18T21:12:40.267Z,10.40
2017-11-18T21:15:10.338Z,17.80
2017-11-18T21:17:40.388Z,10.40
2017-11-18T21:20:10.576Z,13.67
2017-11-18T21:22:40.391Z,20.87
2017-11-18T21:25:10.512Z,14.73
2017-11-18T21:27:40.595Z,19.37
2017-11-18T21:30:12.075Z,13.80
2017-11-18T21:32:41.653Z,14.67
2017-11-18T21:35:11.568Z,12.57
2017-11-18T21:37:42.363Z,10.00
2017-11-18T21:40:12.405Z,10.83
2017-11-18T21:42:42.241Z,10.60
2017-11-18T21:45:12.656Z,10.73
2017-11-18T21:47:43.220Z,10.87
2017-11-18T21:53:08.692Z,19.47
2017-11-18T21:55:39.664Z,10.63
2017-11-18T21:58:10.045Z,10.07
2017-11-18T22:00:40.539Z,12.37
2017-11-18T22:03:11.369Z,11.17
2017-11-18T22:05:41.337Z,10.40
2017-11-18T22:08:10.928Z,11.97
2017-11-18T22:10:40.845Z,9.37
2017-11-18T22:13:10.947Z,15.33
2017-11-18T22:15:41.121Z,11.90
2017-11-18T22:18:11.108Z,9.17
2017-11-18T22:20:41.177Z,12.33
2017-11-18T22:25:47.464Z,8.47
2017-11-18T22:28:17.083Z,12.87
2017-11-18T22:30:47.218Z,9.43
2017-11-18T22:33:17.196Z,15.53
2017-11-18T22:35:46.842Z,13.60
2017-11-18T22:38:16.783Z,16.60
2017-11-18T22:40:46.569Z,11.10
2017-11-18T22:43:16.969Z,15.50
2017-11-18T22:45:47.180Z,10.97
2017-11-18T22:48:17.008Z,10.27
2017-11-18T22:50:47.184Z,11.27
2017-11-18T22:53:17.199Z,13.40
2017-11-18T22:55:47.213Z,12.73
2017-11-18T22:58:17.235Z,10.50
2017-11-18T23:00:47.240Z,11.40
2017-11-18T23:03:17.600Z,11.33
2017-11-18T23:05:47.369Z,14.30
2017-11-18T23:08:17.399Z,11.17
2017-11-18T23:10:47.597Z,13.27
2017-11-18T23:13:18.073Z,10.30
2017-11-18T23:15:48.391Z,11.73
2017-11-18T23:18:18.417Z,9.67
2017-11-18T23:20:48.413Z,16.57
2017-11-18T23:23:18.615Z,12.97
2017-11-18T23:25:49.070Z,16.70
2017-11-18T23:28:18.964Z,14.53
2017-11-18T23:30:49.045Z,12.07
2017-11-18T23:33:19.659Z,12.67
2017-11-18T23:35:49.279Z,11.30
2017-11-18T23:38:19.273Z,9.60
2017-11-18T23:40:49.509Z,11.20
2017-11-18T23:43:20.023Z,9.93
2017-11-18T23:45:50.051Z,13.53
2017-11-18T23:48:20.076Z,10.70
2017-11-18T23:50:50.036Z,12.03
2017-11-18T23:53:20.203Z,10.87
2017-11-18T23:55:51.498Z,10.87
2017-11-18T23:58:21.072Z,14.13
